Time;durP1;ratioP1;P1;durP2;ratioP2;P2;SDS_P1;SDS_P2;PMS_P1;PMS_P2;Temp;Humidity;BMP_temperature;BMP_pressure;BME280_temperature;BME280_humidity;BME280_pressure;Samples;Min_cycle;Max_cycle;Signal;HPM_P1;HPM_P2
2021/10/14 00:00:04;;;;;;;4.07;0.93;;;3.60;42.50;;;;;;4820162;28;20673;-82
2021/10/14 00:02:29;;;;;;;11.83;2.10;;;4.70;42.60;;;;;;4834936;28;20187;-83
2021/10/14 00:04:52;;;;;;;3.90;0.90;;;3.50;41.20;;;;;;4803671;28;20225;-82
2021/10/14 00:07:15;;;;;;;7.27;1.40;;;;;;;;;;4819581;28;20696;-82
2021/10/14 00:09:38;;;;;;;2.90;0.80;;;;;;;;;;4820277;28;20783;-82
2021/10/14 00:12:01;;;;;;;3.43;0.73;;;;;;;;;;4803728;28;20243;-83
2021/10/14 00:14:23;;;;;;;11.60;2.17;;;3.90;41.20;;;;;;4803748;28;20640;-82
2021/10/14 00:16:46;;;;;;;7.53;1.40;;;;;;;;;;4836734;28;20190;-82
2021/10/14 00:19:12;;;;;;;5.03;1.07;;;3.20;42.00;;;;;;4834765;28;20198;-82
2021/10/14 00:21:35;;;;;;;9.77;1.80;;;;;;;;;;4837237;28;20186;-81
2021/10/14 00:23:57;;;;;;;8.60;1.63;;;3.10;41.00;;;;;;4803315;28;20247;-81
2021/10/14 00:26:20;;;;;;;7.23;1.40;;;3.20;39.90;;;;;;4836769;28;20187;-81
2021/10/14 00:28:43;;;;;;;4.30;0.90;;;;;;;;;;4804797;28;20767;-81
2021/10/14 00:31:06;;;;;;;4.63;0.93;;;3.30;39.70;;;;;;4823765;28;20701;-82
2021/10/14 00:33:28;;;;;;;8.67;1.57;;;2.90;40.20;;;;;;4823218;28;20192;-82
2021/10/14 00:35:53;;;;;;;4.93;1.07;;;3.20;39.60;;;;;;4841410;28;20265;-81
2021/10/14 00:38:16;;;;;;;15.23;2.37;;;;;;;;;;4822689;28;20195;-81
2021/10/14 00:40:42;;;;;;;5.87;1.17;;;2.90;40.70;;;;;;4823626;28;20202;-81
2021/10/14 00:43:04;;;;;;;4.77;0.93;;;2.90;40.50;;;;;;4823728;28;20203;-81
2021/10/14 00:45:27;;;;;;;12.73;2.20;;;;;;;;;;4838901;28;20199;-81
2021/10/14 00:47:50;;;;;;;5.93;1.10;;;;;;;;;;4840417;28;20241;-81
2021/10/14 00:50:12;;;;;;;7.63;1.40;;;2.80;39.20;;;;;;4840629;28;20214;-81
2021/10/14 00:52:40;;;;;;;10.30;1.90;;;2.70;40.20;;;;;;4822838;28;20203;-82
2021/10/14 00:55:04;;;;;;;5.57;1.10;;;2.70;40.30;;;;;;4823214;28;20311;-81
2021/10/14 00:57:28;;;;;;;9.37;1.83;;;2.60;39.10;;;;;;4839926;28;20214;-81
2021/10/14 00:59:52;;;;;;;6.50;1.10;;;;;;;;;;4823061;28;20286;-80
2021/10/14 01:02:14;;;;;;;4.97;1.00;;;3.00;40.30;;;;;;4820560;28;20199;-80
2021/10/14 01:04:38;;;;;;;2.27;0.67;;;2.40;39.90;;;;;;4816243;28;20222;-80
2021/10/14 01:07:01;;;;;;;4.03;0.87;;;;;;;;;;4822394;28;20231;-80
2021/10/14 01:09:25;;;;;;;9.43;1.77;;;2.50;39.40;;;;;;4840047;28;20211;-80
2021/10/14 01:11:48;;;;;;;4.73;1.00;;;2.50;39.30;;;;;;4822870;28;20231;-80
2021/10/14 01:14:11;;;;;;;4.30;0.97;;;;;;;;;;4805762;28;20232;-80
2021/10/14 01:16:38;;;;;;;6.63;1.37;;;2.50;39.10;;;;;;4832974;28;20319;-79
2021/10/14 01:19:01;;;;;;;4.03;0.90;;;2.40;38.00;;;;;;4822433;28;20558;-80
2021/10/14 01:21:25;;;;;;;10.67;2.03;;;2.80;38.50;;;;;;4805869;28;20203;-80
2021/10/14 01:23:48;;;;;;;3.47;0.83;;;2.30;38.50;;;;;;4823006;28;20199;-79
2021/10/14 01:26:11;;;;;;;5.23;1.20;;;;;;;;;;4822499;28;20207;-80
2021/10/14 01:28:33;;;;;;;5.80;1.20;;;2.10;38.30;;;;;;4822166;28;20294;-79
2021/10/14 01:30:56;;;;;;;3.80;0.87;;;;;;;;;;4822592;28;20222;-79
2021/10/14 01:33:19;;;;;;;7.83;1.47;;;2.00;38.10;;;;;;4790237;28;20898;-79
2021/10/14 01:35:41;;;;;;;5.13;1.00;;;;;;;;;;4806100;28;20255;-79
2021/10/14 01:38:05;;;;;;;5.63;1.20;;;2.10;38.60;;;;;;4840222;28;20673;-79
2021/10/14 01:40:28;;;;;;;9.60;1.83;;;;;;;;;;4828810;28;20192;-80
2021/10/14 01:42:51;;;;;;;4.37;0.90;;;2.30;36.70;;;;;;4822328;28;20195;-79
2021/10/14 01:45:14;;;;;;;5.27;1.20;;;;;;;;;;4822456;28;20207;-79
2021/10/14 01:47:36;;;;;;;3.47;0.80;;;;;;;;;;4822591;28;20199;-82
2021/10/14 01:49:59;;;;;;;6.77;1.23;;;2.70;36.00;;;;;;4839170;28;20264;-79
2021/10/14 01:52:22;;;;;;;11.93;2.10;;;2.90;36.00;;;;;;4821990;28;20619;-79
2021/10/14 01:54:46;;;;;;;3.70;0.80;;;3.80;35.30;;;;;;4822266;28;20254;-79
2021/10/14 01:57:08;;;;;;;3.83;0.87;;;3.00;35.60;;;;;;4839520;28;20194;-79
2021/10/14 01:59:31;;;;;;;8.60;1.63;;;3.10;35.80;;;;;;4803045;28;20652;-80
2021/10/14 02:01:53;;;;;;;4.53;1.07;;;;;;;;;;4819717;28;20200;-79
2021/10/14 02:04:16;;;;;;;4.20;0.97;;;3.40;34.20;;;;;;4805321;28;20216;-80
2021/10/14 02:06:39;;;;;;;4.57;1.03;;;;;;;;;;4822066;28;20735;-79
2021/10/14 02:09:01;;;;;;;5.13;1.03;;;3.50;33.80;;;;;;4821977;28;20635;-79
2021/10/14 02:11:25;;;;;;;12.00;2.20;;;3.80;35.00;;;;;;4805328;28;20642;-79
2021/10/14 02:13:48;;;;;;;5.27;1.20;;;;;;;;;;4839465;28;20547;-79
2021/10/14 02:16:11;;;;;;;8.43;1.70;;;;;;;;;;4805541;28;20254;-81
2021/10/14 02:18:34;;;;;;;7.20;1.53;;;;;;;;;;4821912;28;20573;-79
2021/10/14 02:20:56;;;;;;;5.30;1.17;;;;;;;;;;4818308;28;20203;-80
2021/10/14 02:23:19;;;;;;;5.50;1.23;;;;;;;;;;4805334;28;20199;-79
2021/10/14 02:25:42;;;;;;;4.07;0.90;;;;;;;;;;4822027;28;20199;-79
2021/10/14 02:28:06;;;;;;;3.20;0.70;;;4.10;34.60;;;;;;4821672;28;20199;-79
2021/10/14 02:30:29;;;;;;;11.97;2.20;;;4.00;34.60;;;;;;4820449;28;20218;-79
2021/10/14 02:32:51;;;;;;;3.53;0.87;;;;;;;;;;4821277;28;20214;-79
2021/10/14 02:35:15;;;;;;;5.80;1.27;;;;;;;;;;4821347;28;20283;-80
2021/10/14 02:37:38;;;;;;;3.53;0.80;;;;;;;;;;4804944;28;20192;-79
2021/10/14 02:40:01;;;;;;;3.03;0.80;;;4.30;36.00;;;;;;4821827;28;20250;-80
2021/10/14 02:42:23;;;;;;;11.03;2.13;;;4.30;36.20;;;;;;4838412;28;20195;-80
2021/10/14 02:44:48;;;;;;;9.00;1.70;;;4.20;37.50;;;;;;4838565;28;20179;-80
2021/10/14 02:47:11;;;;;;;6.43;1.40;;;;;;;;;;4799061;28;20247;-79
2021/10/14 02:49:34;;;;;;;8.67;1.80;;;4.40;37.10;;;;;;4837237;28;20211;-80
2021/10/14 02:51:56;;;;;;;3.53;0.80;;;;;;;;;;4836632;28;20195;-80
2021/10/14 02:54:19;;;;;;;6.10;1.30;;;;;;;;;;4820269;28;20207;-79
2021/10/14 02:56:42;;;;;;;3.63;0.90;;;;;;;;;;4838491;28;20191;-79
2021/10/14 02:59:05;;;;;;;3.37;0.80;;;4.20;39.10;;;;;;4818048;28;20254;-78
2021/10/14 03:01:29;;;;;;;8.80;1.80;;;4.30;40.40;;;;;;4806870;28;20227;-78
2021/10/14 03:03:52;;;;;;;3.10;0.77;;;4.20;40.40;;;;;;4804405;28;20671;-79
2021/10/14 03:06:14;;;;;;;5.30;1.17;;;;;;;;;;4838368;28;20187;-79
2021/10/14 03:08:37;;;;;;;3.07;0.80;;;4.90;41.50;;;;;;4821251;28;20262;-79
2021/10/14 03:11:00;;;;;;;2.57;0.67;;;4.90;40.70;;;;;;4820676;28;20227;-79
2021/10/14 03:13:22;;;;;;;11.20;2.10;;;4.50;40.50;;;;;;4820293;28;20294;-79
2021/10/14 03:15:45;;;;;;;5.90;1.20;;;;;;;;;;4838290;28;20648;-79
2021/10/14 03:18:09;;;;;;;6.47;1.17;;;4.40;41.60;;;;;;4820486;28;20777;-79
2021/10/14 03:20:33;;;;;;;8.63;1.70;;;;;;;;;;4813230;28;20199;-79
2021/10/14 03:22:55;;;;;;;4.00;0.90;;;4.40;41.80;;;;;;4820910;28;20241;-79
2021/10/14 03:25:18;;;;;;;3.43;0.77;;;4.60;41.00;;;;;;4803703;28;20195;-80
2021/10/14 03:27:41;;;;;;;3.23;0.80;;;;;;;;;;4820129;28;20711;-79
2021/10/14 03:30:04;;;;;;;4.97;1.13;;;4.60;41.40;;;;;;4820610;28;20265;-80
2021/10/14 03:32:27;;;;;;;9.60;1.80;;;;;;;;;;4820024;28;20242;-79
2021/10/14 03:34:50;;;;;;;4.33;1.00;;;4.40;42.60;;;;;;4804540;28;20230;-80
2021/10/14 03:37:13;;;;;;;5.03;1.17;;;;;;;;;;4820258;28;20242;-80
2021/10/14 03:39:36;;;;;;;4.40;1.07;;;;;;;;;;4820572;28;20253;-79
2021/10/14 03:41:59;;;;;;;3.23;0.77;;;4.60;42.50;;;;;;4803858;28;20247;-82
2021/10/14 03:44:21;;;;;;;8.47;1.63;;;4.60;42.30;;;;;;4819721;28;20187;-79
2021/10/14 03:46:44;;;;;;;3.93;0.90;;;4.70;42.30;;;;;;4836652;28;20225;-79
2021/10/14 03:49:06;;;;;;;3.83;0.90;;;4.60;43.00;;;;;;4803348;28;20192;-80
2021/10/14 03:51:30;;;;;;;8.87;1.73;;;4.70;42.50;;;;;;4829793;28;20207;-80
2021/10/14 03:53:53;;;;;;;3.77;0.90;;;;;;;;;;4837832;28;20190;-80
2021/10/14 03:56:16;;;;;;;4.47;1.00;;;4.50;42.70;;;;;;4804100;28;20678;-80
2021/10/14 03:58:39;;;;;;;3.47;0.87;;;;;;;;;;4804135;28;20199;-80
2021/10/14 04:01:02;;;;;;;4.07;0.97;;;4.50;42.60;;;;;;4835732;28;20183;-80
2021/10/14 04:03:24;;;;;;;8.20;1.73;;;;;;;;;;4818145;28;20269;-79
2021/10/14 04:05:47;;;;;;;4.00;1.00;;;4.60;42.60;;;;;;4820281;28;20207;-80
2021/10/14 04:08:11;;;;;;;4.67;1.10;;;4.70;42.50;;;;;;4820075;28;20250;-79
2021/10/14 04:10:34;;;;;;;8.13;1.73;;;;;;;;;;4807281;28;20262;-79
2021/10/14 04:13:16;;;;;;;3.93;0.97;;;;;;;;;;4837285;28;20228;-83
2021/10/14 04:15:59;;;;;;;3.73;0.97;;;4.10;42.40;;;;;;4823021;28;20194;-79
2021/10/14 04:18:41;;;;;;;4.07;1.07;;;4.20;42.50;;;;;;4816738;28;20658;-79
2021/10/14 04:21:25;;;;;;;11.33;2.10;;;;;;;;;;4822119;28;20193;-79
2021/10/14 04:24:09;;;;;;;4.00;1.00;;;4.30;43.10;;;;;;4821647;28;20193;-80
2021/10/14 04:26:51;;;;;;;4.43;1.07;;;4.30;42.10;;;;;;4825554;28;20550;-79
2021/10/14 04:29:14;;;;;;;5.47;1.27;;;;;;;;;;4835159;28;20217;-79
2021/10/14 04:31:38;;;;;;;2.27;0.73;;;4.40;43.00;;;;;;4837304;28;20214;-81
2021/10/14 04:34:01;;;;;;;4.33;1.03;;;;;;;;;;4836806;28;20241;-80
2021/10/14 04:36:24;;;;;;;11.00;2.17;;;4.70;42.30;;;;;;4819498;28;20300;-79
2021/10/14 04:38:46;;;;;;;3.73;0.97;;;4.40;42.30;;;;;;4819663;28;20962;-80
2021/10/14 04:41:10;;;;;;;4.97;1.13;;;4.50;43.10;;;;;;4835918;28;20186;-79
2021/10/14 04:43:33;;;;;;;6.13;1.53;;;;;;;;;;4837373;28;20191;-80
2021/10/14 04:45:56;;;;;;;4.57;1.13;;;4.40;43.50;;;;;;4836874;28;20233;-80
2021/10/14 04:48:18;;;;;;;4.00;1.00;;;5.70;43.90;;;;;;4835289;28;20195;-79
2021/10/14 04:50:41;;;;;;;3.83;0.90;;;;;;;;;;4836798;28;20237;-79
2021/10/14 04:53:04;;;;;;;3.80;0.93;;;;;;;;;;4819153;28;20218;-79
2021/10/14 04:55:27;;;;;;;9.80;1.97;;;;;;;;;;4836650;28;20191;-84
2021/10/14 04:57:51;;;;;;;3.67;0.90;;;4.50;42.40;;;;;;4814346;28;20204;-81
2021/10/14 05:00:15;;;;;;;4.53;1.07;;;4.90;42.40;;;;;;4803258;28;20635;-80
2021/10/14 05:02:38;;;;;;;4.33;1.10;;;;;;;;;;4816849;28;20207;-80
2021/10/14 05:05:01;;;;;;;3.80;0.97;;;4.50;42.20;;;;;;4815611;28;20223;-79
2021/10/14 05:07:23;;;;;;;10.63;2.17;;;4.50;42.30;;;;;;4803283;28;20227;-80
2021/10/14 05:09:46;;;;;;;5.97;1.30;;;;;;;;;;4818776;28;20781;-79
2021/10/14 05:12:09;;;;;;;3.13;0.87;;;5.00;42.60;;;;;;4819278;28;20223;-86
2021/10/14 05:14:33;;;;;;;7.10;1.50;;;4.30;43.10;;;;;;4796584;28;20629;-78
2021/10/14 05:16:56;;;;;;;3.83;1.00;;;;;;;;;;4822424;28;20196;-80
2021/10/14 05:19:19;;;;;;;5.37;1.23;;;;;;;;;;4840193;28;20236;-78
2021/10/14 05:21:42;;;;;;;3.97;1.00;;;;;;;;;;4840254;28;20245;-79
2021/10/14 05:24:05;;;;;;;3.03;0.77;;;;;;;;;;4806257;28;20188;-84
2021/10/14 05:26:28;;;;;;;9.90;2.03;;;4.50;42.20;;;;;;4839918;28;20191;-80
2021/10/14 05:28:50;;;;;;;5.67;1.37;;;4.60;42.10;;;;;;4822641;28;20246;-78
2021/10/14 05:31:14;;;;;;;4.07;1.00;;;4.50;43.00;;;;;;4820422;28;20289;-80
2021/10/14 05:33:37;;;;;;;2.20;0.73;;;;;;;;;;4838354;28;20190;-81
2021/10/14 05:36:00;;;;;;;3.87;0.93;;;3.40;42.00;;;;;;4832548;28;20255;-78
2021/10/14 05:38:23;;;;;;;9.50;1.90;;;4.70;42.30;;;;;;4829297;28;20186;-80
2021/10/14 05:40:47;;;;;;;4.03;0.90;;;;;;;;;;4822571;28;20203;-79
2021/10/14 05:43:10;;;;;;;4.70;1.10;;;;;;;;;;4805846;28;20701;-80
2021/10/14 05:45:32;;;;;;;7.83;1.73;;;3.90;42.20;;;;;;4822175;28;20191;-79
2021/10/14 05:47:56;;;;;;;4.17;1.10;;;4.50;43.30;;;;;;4822383;28;20553;-79
2021/10/14 05:50:19;;;;;;;4.70;1.13;;;;;;;;;;4839581;28;20249;-79
2021/10/14 05:52:41;;;;;;;5.47;1.17;;;4.80;42.80;;;;;;4805998;28;20224;-79
2021/10/14 05:55:05;;;;;;;4.00;1.10;;;5.30;42.70;;;;;;4805971;28;20196;-78
2021/10/14 05:57:27;;;;;;;7.77;1.60;;;4.50;43.30;;;;;;4839024;28;20830;-80
2021/10/14 05:59:50;;;;;;;3.40;0.83;;;4.40;42.30;;;;;;4822001;28;20223;-79
2021/10/14 06:02:12;;;;;;;4.17;1.00;;;;;;;;;;4819505;28;20203;-79
2021/10/14 06:04:36;;;;;;;10.27;2.20;;;4.60;43.10;;;;;;4820558;28;20285;-81
2021/10/14 06:06:59;;;;;;;6.20;1.33;;;;;;;;;;4838559;28;20183;-79
2021/10/14 06:09:22;;;;;;;9.67;1.83;;;4.80;42.40;;;;;;4821805;28;20208;-79
2021/10/14 06:11:44;;;;;;;5.27;1.27;;;5.00;42.70;;;;;;4805430;28;20277;-79
2021/10/14 06:14:07;;;;;;;5.27;1.13;;;4.70;42.70;;;;;;4805736;28;20195;-79
2021/10/14 06:16:30;;;;;;;6.43;1.40;;;4.30;42.50;;;;;;4804704;28;20670;-79
2021/10/14 06:18:53;;;;;;;3.57;0.90;;;4.80;42.90;;;;;;4822184;28;20195;-77
2021/10/14 06:21:17;;;;;;;4.87;1.10;;;4.90;43.70;;;;;;4821346;28;20207;-77
2021/10/14 06:23:40;;;;;;;3.83;0.90;;;;;;;;;;4820695;28;20199;-76
2021/10/14 06:26:03;;;;;;;4.57;1.07;;;;;;;;;;4820230;28;20183;-75
2021/10/14 06:28:25;;;;;;;7.90;1.60;;;5.60;43.20;;;;;;4839403;28;20722;-77
2021/10/14 06:30:49;;;;;;;3.23;0.80;;;6.00;43.70;;;;;;4805330;28;20200;-76
2021/10/14 06:33:11;;;;;;;4.43;1.03;;;5.00;43.80;;;;;;4805720;28;20243;-77
2021/10/14 06:35:34;;;;;;;12.63;2.40;;;4.90;43.10;;;;;;4839324;28;20257;-76
2021/10/14 06:37:58;;;;;;;3.83;0.90;;;5.20;44.20;;;;;;4821368;28;20204;-75
2021/10/14 06:40:21;;;;;;;2.27;0.70;;;5.20;43.50;;;;;;4821565;28;20233;-77
2021/10/14 06:42:43;;;;;;;7.40;1.53;;;5.00;43.60;;;;;;4821350;28;20204;-77
2021/10/14 06:45:07;;;;;;;2.03;0.60;;;5.60;43.80;;;;;;4822087;28;20202;-79
2021/10/14 06:47:30;;;;;;;7.77;1.60;;;;;;;;;;4821240;28;20196;-77
2021/10/14 06:49:52;;;;;;;3.63;0.90;;;5.20;44.50;;;;;;4839410;28;20191;-79
2021/10/14 06:52:15;;;;;;;3.57;0.80;;;5.20;43.80;;;;;;4789691;28;20260;-77
2021/10/14 06:54:39;;;;;;;7.87;1.70;;;5.70;44.00;;;;;;4839131;28;20194;-78
2021/10/14 06:57:04;;;;;;;6.70;1.43;;;6.40;44.00;;;;;;4821900;28;20203;-79
2021/10/14 06:59:27;;;;;;;8.47;1.70;;;5.70;44.50;;;;;;4837265;28;20306;-77
2021/10/14 07:01:50;;;;;;;3.93;1.00;;;4.50;44.70;;;;;;4802558;28;20699;-81
2021/10/14 07:04:12;;;;;;;5.40;1.20;;;5.60;44.20;;;;;;4819481;28;20282;-78
2021/10/14 07:06:35;;;;;;;7.93;1.73;;;5.80;44.10;;;;;;4837186;28;20214;-76
2021/10/14 07:08:57;;;;;;;6.97;1.37;;;6.40;44.50;;;;;;4838171;28;20230;-79
2021/10/14 07:11:28;;;;;;;6.20;1.43;;;6.40;45.60;;;;;;4836829;28;20276;-85
2021/10/14 07:13:50;;;;;;;4.13;1.00;;;6.80;45.40;;;;;;4837524;28;20698;-78
2021/10/14 07:16:13;;;;;;;4.63;1.10;;;7.00;45.30;;;;;;4838060;28;20195;-79
2021/10/14 07:18:35;;;;;;;7.23;1.57;;;7.10;45.70;;;;;;4820804;28;20226;-79
2021/10/14 07:20:59;;;;;;;5.90;1.20;;;;;;;;;;4838622;28;20221;-79
2021/10/14 07:23:21;;;;;;;3.87;1.00;;;6.90;45.30;;;;;;4820038;28;20199;-79
2021/10/14 07:25:45;;;;;;;3.70;0.87;;;6.80;45.30;;;;;;4804976;28;20188;-82
2021/10/14 07:28:10;;;;;;;3.80;0.90;;;7.50;46.20;;;;;;4788800;28;20736;-77
2021/10/14 07:30:33;;;;;;;5.83;1.20;;;7.30;46.30;;;;;;4809946;28;20635;-80
2021/10/14 07:32:56;;;;;;;3.90;0.90;;;7.60;46.00;;;;;;4801912;28;20212;-79
2021/10/14 07:35:20;;;;;;;4.53;1.00;;;7.90;46.20;;;;;;4820937;28;20199;-78
2021/10/14 07:37:43;;;;;;;26.83;4.80;;;;;;;;;;4814811;28;20940;-79
2021/10/14 07:40:07;;;;;;;4.73;1.10;;;9.60;46.70;;;;;;4819320;28;20751;-76
2021/10/14 07:42:30;;;;;;;10.60;2.00;;;;;;;;;;4806108;28;20610;-82
2021/10/14 07:44:54;;;;;;;7.07;1.43;;;10.40;47.40;;;;;;4788307;28;20196;-83
2021/10/14 07:47:16;;;;;;;7.70;1.50;;;10.30;47.80;;;;;;4802719;28;20195;-76
2021/10/14 07:49:39;;;;;;;9.37;1.77;;;11.10;48.30;;;;;;4801962;28;20208;-77
2021/10/14 07:52:02;;;;;;;3.70;0.83;;;11.00;49.20;;;;;;4835900;28;20272;-76
2021/10/14 07:54:25;;;;;;;10.17;1.97;;;11.50;48.90;;;;;;4802393;28;20716;-80
2021/10/14 07:56:47;;;;;;;9.30;1.90;;;;;;;;;;4837051;28;20178;-79
2021/10/14 07:59:10;;;;;;;5.07;1.13;;;11.30;50.20;;;;;;4818979;28;20207;-80
2021/10/14 08:01:34;;;;;;;9.40;1.80;;;11.30;50.30;;;;;;4801141;28;20630;-80
2021/10/14 08:03:57;;;;;;;6.40;1.37;;;;;;;;;;4819689;28;20261;-81
2021/10/14 08:06:20;;;;;;;3.50;0.90;;;;;;;;;;4824634;28;20207;-79
2021/10/14 08:08:43;;;;;;;18.60;3.23;;;9.50;50.10;;;;;;4801300;28;20236;-81
2021/10/14 08:11:05;;;;;;;6.67;1.30;;;;;;;;;;4819938;28;20258;-77
2021/10/14 08:13:28;;;;;;;12.73;2.43;;;;;;;;;;4819052;28;20227;-79
2021/10/14 08:15:52;;;;;;;5.70;1.10;;;;;;;;;;4835549;28;20591;-77
2021/10/14 08:18:17;;;;;;;7.33;1.40;;;10.40;49.80;;;;;;4811058;28;20252;-80
2021/10/14 08:20:40;;;;;;;4.37;1.00;;;;;;;;;;4836328;28;20261;-83
2021/10/14 08:23:03;;;;;;;4.93;1.03;;;11.00;50.00;;;;;;4836738;28;20817;-80
2021/10/14 08:25:26;;;;;;;9.47;1.73;;;;;;;;;;4802481;28;20358;-78
2021/10/14 08:27:49;;;;;;;15.70;2.77;;;11.40;49.40;;;;;;4818760;28;20212;-80
2021/10/14 08:30:13;;;;;;;7.73;1.57;;;11.10;49.50;;;;;;4818088;28;20196;-83
2021/10/14 08:32:36;;;;;;;9.67;1.77;;;11.20;49.50;;;;;;4803236;28;20262;-81
2021/10/14 08:35:00;;;;;;;4.93;1.03;;;10.90;50.40;;;;;;4823210;28;20195;-81
2021/10/14 08:37:23;;;;;;;6.97;1.37;;;;;;;;;;4830471;28;20241;-79
2021/10/14 08:39:46;;;;;;;14.07;2.47;;;;;;;;;;4833900;28;20584;-80
2021/10/14 08:42:09;;;;;;;8.03;1.60;;;;;;;;;;4830454;28;20203;-88
2021/10/14 08:44:32;;;;;;;11.70;2.20;;;11.60;49.80;;;;;;4810213;28;20196;-81
2021/10/14 08:46:55;;;;;;;3.30;0.80;;;11.90;50.10;;;;;;4802030;28;20730;-85
2021/10/14 08:49:18;;;;;;;5.47;1.13;;;;;;;;;;4828878;28;20249;-80
2021/10/14 08:51:43;;;;;;;4.87;1.00;;;11.90;51.30;;;;;;4807954;28;20203;-79
2021/10/14 08:54:06;;;;;;;6.60;1.23;;;;;;;;;;4840875;28;20751;-78
2021/10/14 08:56:29;;;;;;;10.70;1.93;;;;;;;;;;4807941;28;20251;-84
2021/10/14 08:58:52;;;;;;;6.87;1.33;;;13.00;51.60;;;;;;4833899;28;20250;-85
2021/10/14 09:01:16;;;;;;;10.33;1.80;;;13.10;51.90;;;;;;4822053;28;20619;-85
2021/10/14 09:03:46;;;;;;;13.10;2.27;;;13.80;52.60;;;;;;4821939;28;20270;-84
2021/10/14 09:06:10;;;;;;;8.37;1.43;;;14.40;52.90;;;;;;4808453;28;20250;-89
2021/10/14 09:08:36;;;;;;;19.53;3.00;;;14.90;53.60;;;;;;4839598;28;20230;-84
2021/10/14 09:11:05;;;;;;;6.83;1.20;;;15.00;54.00;;;;;;4835877;28;20199;-86
2021/10/14 09:13:28;;;;;;;14.50;2.20;;;;;;;;;;4851179;28;20206;-88
2021/10/14 09:15:51;;;;;;;5.47;0.97;;;;;;;;;;4842665;28;20187;-88
2021/10/14 09:18:26;;;;;;;7.27;1.20;;;14.80;54.00;;;;;;4842393;28;20206;-90
2021/10/14 09:20:49;;;;;;;7.27;1.23;;;;;;;;;;4825948;28;20189;-85
2021/10/14 09:23:13;;;;;;;8.87;1.33;;;14.50;54.30;;;;;;4819407;28;20208;-87
2021/10/14 09:25:39;;;;;;;12.70;2.03;;;14.40;54.20;;;;;;4819895;28;20755;-86
2021/10/14 09:28:17;;;;;;;2.80;0.60;;;14.50;54.30;;;;;;4824830;28;20200;-92
2021/10/14 09:30:50;;;;;;;1.80;0.47;;;14.50;54.60;;;;;;4822688;28;20200;-83
2021/10/14 09:33:35;;;;;;;8.50;1.43;;;14.70;54.60;;;;;;4822690;28;20253;-87
2021/10/14 09:35:57;;;;;;;13.10;2.07;;;;;;;;;;4824271;28;20249;-84
2021/10/14 09:38:31;;;;;;;6.90;1.17;;;15.10;54.80;;;;;;4821709;28;20199;-84
2021/10/14 09:41:02;;;;;;;9.70;1.60;;;15.50;55.00;;;;;;4822186;28;20302;-78
2021/10/14 09:43:26;;;;;;;11.83;1.80;;;;;;;;;;4810489;28;20332;-87
2021/10/14 09:45:49;;;;;;;6.83;1.30;;;;;;;;;;4822612;28;20669;-82
2021/10/14 09:48:13;;;;;;;7.77;1.33;;;15.30;55.50;;;;;;4821955;28;20563;-81
2021/10/14 09:50:37;;;;;;;15.77;2.40;;;15.40;55.50;;;;;;4838983;28;20183;-83
2021/10/14 09:53:00;;;;;;;5.90;1.10;;;;;;;;;;4839428;28;20272;-80
2021/10/14 09:55:23;;;;;;;8.67;1.40;;;16.60;56.10;;;;;;4838204;28;20257;-80
2021/10/14 09:57:47;;;;;;;8.47;1.30;;;17.60;56.70;;;;;;4839763;28;20602;-79
2021/10/14 10:00:11;;;;;;;10.93;1.67;;;19.50;58.40;;;;;;4820705;28;20200;-78
2021/10/14 10:02:35;;;;;;;14.43;1.97;;;;;;;;;;4837016;28;20637;-76
2021/10/14 10:04:57;;;;;;;8.53;1.20;;;;;;;;;;4838310;28;20217;-77
2021/10/14 10:07:20;;;;;;;15.43;2.03;;;;;;;;;;4805130;28;20232;-79
2021/10/14 10:09:43;;;;;;;9.13;1.27;;;23.60;61.30;;;;;;4804981;28;20239;-79
2021/10/14 10:12:07;;;;;;;23.17;2.87;;;23.40;61.30;;;;;;4834034;28;20280;-80
2021/10/14 10:14:31;;;;;;;17.70;2.30;;;22.60;60.90;;;;;;4821620;28;20282;-79
2021/10/14 10:16:58;;;;;;;9.67;1.23;;;22.70;60.90;;;;;;4821822;28;20207;-81
2021/10/14 10:19:39;;;;;;;13.00;1.70;;;23.30;61.30;;;;;;4788095;28;20198;-78
2021/10/14 10:22:06;;;;;;;11.40;1.43;;;;;;;;;;4839029;28;20185;-84
2021/10/14 10:24:32;;;;;;;14.57;1.87;;;23.10;61.30;;;;;;4838976;28;20286;-82
2021/10/14 10:26:55;;;;;;;8.97;1.20;;;22.20;61.00;;;;;;4818351;28;20210;-77
2021/10/14 10:29:59;;;;;;;14.43;1.80;;;21.30;60.60;;;;;;4820009;28;20197;-84
2021/10/14 10:32:23;;;;;;;11.63;1.53;;;20.50;60.20;;;;;;4837960;28;20472;-77
2021/10/14 10:35:05;;;;;;;7.87;1.03;;;20.10;59.80;;;;;;4815605;28;20191;-82
2021/10/14 10:37:50;;;;;;;18.33;2.23;;;19.80;59.70;;;;;;4822405;28;20191;-81
2021/10/14 10:40:24;;;;;;;14.67;1.90;;;19.60;59.60;;;;;;4821047;28;20214;-81
2021/10/14 10:42:52;;;;;;;7.37;1.00;;;19.30;59.50;;;;;;4822018;28;20638;-87
2021/10/14 10:45:18;;;;;;;10.00;1.40;;;19.20;59.50;;;;;;4805435;28;20648;-84
2021/10/14 10:47:50;;;;;;;17.63;2.23;;;20.00;59.80;;;;;;4820142;28;20755;-82
2021/10/14 10:50:16;;;;;;;12.60;1.63;;;21.40;60.50;;;;;;4818611;28;20246;-80
2021/10/14 10:52:40;;;;;;;15.23;1.93;;;22.40;61.00;;;;;;4822931;28;20243;-83
2021/10/14 10:55:12;;;;;;;8.23;1.13;;;23.20;61.40;;;;;;4802124;28;20255;-82
2021/10/14 10:57:51;;;;;;;31.30;3.80;;;23.50;61.50;;;;;;4815306;28;20192;-81
2021/10/14 11:00:14;;;;;;;17.50;2.23;;;;;;;;;;4836936;28;20267;-83
2021/10/14 11:02:38;;;;;;;13.93;1.73;;;22.90;61.40;;;;;;4813767;28;20196;-81
2021/10/14 11:05:02;;;;;;;9.67;1.30;;;22.20;61.10;;;;;;4813983;28;20230;-80
2021/10/14 11:07:25;;;;;;;8.67;1.23;;;;;;;;;;4820715;28;20226;-79
2021/10/14 11:09:48;;;;;;;12.00;1.50;;;;;;;;;;4803722;28;20201;-77
2021/10/14 11:12:17;;;;;;;12.80;1.63;;;;;;;;;;4819508;28;20197;-77
2021/10/14 11:14:40;;;;;;;16.50;2.13;;;;;;;;;;4811141;28;20259;-78
2021/10/14 11:17:10;;;;;;;7.20;1.00;;;20.00;60.00;;;;;;4801557;28;20236;-82
2021/10/14 11:19:38;;;;;;;13.87;1.77;;;20.80;60.20;;;;;;4785549;28;20197;-84
2021/10/14 11:22:12;;;;;;;13.43;1.70;;;21.40;60.60;;;;;;4834942;28;20194;-81
2021/10/14 11:24:42;;;;;;;17.30;2.27;;;21.10;60.50;;;;;;4833182;28;20618;-80
2021/10/14 11:27:14;;;;;;;5.20;0.67;;;20.60;60.20;;;;;;4831549;28;20203;-83
2021/10/14 11:29:37;;;;;;;14.90;1.90;;;;;;;;;;4806195;28;20640;-82
2021/10/14 11:32:04;;;;;;;12.53;1.67;;;21.00;60.50;;;;;;4803850;28;20192;-80
2021/10/14 11:34:28;;;;;;;14.73;1.87;;;21.70;60.60;;;;;;4835875;28;20242;-85
2021/10/14 11:36:55;;;;;;;7.90;1.07;;;22.80;61.40;;;;;;4827288;28;20204;-86
2021/10/14 11:39:19;;;;;;;14.47;1.93;;;23.60;61.80;;;;;;4819751;28;20256;-79
2021/10/14 11:41:42;;;;;;;14.90;1.90;;;;;;;;;;4836594;28;20250;-84
2021/10/14 11:44:07;;;;;;;8.93;1.27;;;24.00;62.00;;;;;;4819968;28;20721;-81
2021/10/14 11:46:32;;;;;;;19.03;2.40;;;25.50;47.60;;;;;;4819969;28;20195;-81
2021/10/14 11:48:59;;;;;;;8.27;1.10;;;27.50;47.10;;;;;;4802996;28;20197;-83
2021/10/14 11:51:22;;;;;;;15.00;1.97;;;;;;;;;;4819360;28;20767;-77
2021/10/14 11:53:56;;;;;;;5.20;0.70;;;31.70;50.20;;;;;;4820058;28;20209;-86
2021/10/14 11:56:19;;;;;;;12.70;1.70;;;;;;;;;;4837404;28;20205;-77
2021/10/14 11:58:42;;;;;;;35.73;4.47;;;;;;;;;;4818609;28;20198;-84
2021/10/14 12:01:13;;;;;;;5.27;0.73;;;34.60;51.50;;;;;;4835918;28;20186;-79
2021/10/14 12:03:36;;;;;;;19.17;2.37;;;;;;;;;;4816229;28;20257;-78
2021/10/14 12:06:00;;;;;;;8.93;1.20;;;34.00;51.20;;;;;;4837018;28;20255;-88
2021/10/14 12:08:23;;;;;;;19.17;2.40;;;35.20;51.60;;;;;;4819110;28;20274;-80
2021/10/14 12:10:50;;;;;;;6.93;0.93;;;36.10;52.00;;;;;;4836550;28;20606;-77
2021/10/14 12:13:16;;;;;;;10.67;1.30;;;36.20;52.10;;;;;;4819534;28;20249;-86
2021/10/14 12:15:39;;;;;;;21.87;2.70;;;;;;;;;;4787834;28;20200;-84
2021/10/14 12:18:01;;;;;;;11.30;1.50;;;;;;;;;;4837365;28;20223;-85
2021/10/14 12:20:26;;;;;;;14.47;1.83;;;35.90;52.10;;;;;;4817859;28;20183;-77
2021/10/14 12:22:50;;;;;;;18.30;2.33;;;36.30;52.20;;;;;;4819029;28;20190;-76
2021/10/14 12:25:13;;;;;;;14.37;1.83;;;;;;;;;;4835528;28;20216;-76
2021/10/14 12:27:45;;;;;;;12.93;1.70;;;36.90;51.70;;;;;;4799982;28;20197;-77
2021/10/14 12:30:19;;;;;;;7.50;1.00;;;37.00;52.40;;;;;;4834191;28;20574;-78
2021/10/14 12:32:42;;;;;;;27.33;3.33;;;;;;;;;;4836422;28;20213;-82
2021/10/14 12:35:07;;;;;;;7.17;1.07;;;35.80;52.00;;;;;;4815220;28;20330;-78
2021/10/14 12:37:33;;;;;;;11.20;1.43;;;36.10;52.10;;;;;;4813379;28;20301;-77
2021/10/14 12:40:18;;;;;;;10.47;1.43;;;36.40;51.10;;;;;;4837583;28;20189;-78
2021/10/14 12:42:52;;;;;;;15.37;1.93;;;36.30;52.10;;;;;;4812099;28;20186;-78
2021/10/14 12:45:16;;;;;;;8.50;1.17;;;;;;;;;;4837554;28;20208;-84
2021/10/14 12:47:43;;;;;;;16.70;2.00;;;;;;;;;;4819851;28;20247;-80
2021/10/14 12:50:31;;;;;;;8.60;1.10;;;29.90;50.00;;;;;;4836919;28;20201;-79
2021/10/14 12:53:14;;;;;;;11.83;1.53;;;29.90;48.60;;;;;;4836228;28;20186;-80
2021/10/14 12:55:54;;;;;;;17.10;2.27;;;28.70;49.60;;;;;;4834694;28;20194;-83
2021/10/14 12:58:18;;;;;;;8.87;1.20;;;27.00;48.90;;;;;;4802111;28;20212;-81
2021/10/14 13:00:41;;;;;;;72.67;9.00;;;;;;;;;;4833228;28;20257;-82
2021/10/14 13:03:04;;;;;;;7.50;1.07;;;;;;;;;;4831893;28;20223;-79
2021/10/14 13:05:27;;;;;;;5.80;0.90;;;;;;;;;;4835804;28;20218;-81
2021/10/14 13:07:49;;;;;;;9.43;1.40;;;20.30;59.70;;;;;;4801723;28;20273;-79
2021/10/14 13:10:12;;;;;;;8.00;1.07;;;;;;;;;;4814488;28;20220;-79